sensor_id;sensor_type;location;lat;lon;timestamp;P1;durP1;ratioP1;P2;durP2;ratioP2
7737;SDS011;29398;45.328;5.558;2023-03-01T00:00:25;17.83;;;15.88;;
7737;SDS011;29398;45.328;5.558;2023-03-01T00:01:28;18.00;;;16.03;;
7737;SDS011;29398;45.328;5.558;2023-03-01T00:02:31;17.80;;;15.90;;
7737;SDS011;29398;45.328;5.558;2023-03-01T00:03:32;17.40;;;15.57;;
7737;SDS011;29398;45.328;5.558;2023-03-01T00:04:35;19.58;;;16.92;;
7737;SDS011;29398;45.328;5.558;2023-03-01T00:05:36;18.10;;;16.20;;
7737;SDS011;29398;45.328;5.558;2023-03-01T00:06:44;19.02;;;16.42;;
7737;SDS011;29398;45.328;5.558;2023-03-01T00:07:46;17.98;;;16.13;;
7737;SDS011;29398;45.328;5.558;2023-03-01T00:08:49;19.23;;;17.02;;
7737;SDS011;29398;45.328;5.558;2023-03-01T00:09:51;18.67;;;16.67;;
7737;SDS011;29398;45.328;5.558;2023-03-01T00:10:59;17.73;;;15.93;;
7737;SDS011;29398;45.328;5.558;2023-03-01T00:12:02;19.17;;;16.85;;
7737;SDS011;29398;45.328;5.558;2023-03-01T00:13:04;19.08;;;16.83;;
7737;SDS011;29398;45.328;5.558;2023-03-01T00:14:06;19.27;;;17.23;;
7737;SDS011;29398;45.328;5.558;2023-03-01T00:15:08;20.05;;;17.15;;
7737;SDS011;29398;45.328;5.558;2023-03-01T00:16:10;19.88;;;17.33;;
7737;SDS011;29398;45.328;5.558;2023-03-01T00:17:14;20.80;;;18.60;;
7737;SDS011;29398;45.328;5.558;2023-03-01T00:18:16;19.52;;;17.48;;
7737;SDS011;29398;45.328;5.558;2023-03-01T00:19:17;19.23;;;17.08;;
7737;SDS011;29398;45.328;5.558;2023-03-01T00:20:22;19.50;;;17.27;;
7737;SDS011;29398;45.328;5.558;2023-03-01T00:21:23;21.70;;;17.90;;
7737;SDS011;29398;45.328;5.558;2023-03-01T00:22:26;20.38;;;18.23;;
7737;SDS011;29398;45.328;5.558;2023-03-01T00:23:28;19.08;;;17.08;;
7737;SDS011;29398;45.328;5.558;2023-03-01T00:24:32;22.17;;;19.23;;
7737;SDS011;29398;45.328;5.558;2023-03-01T00:25:33;20.38;;;17.85;;
7737;SDS011;29398;45.328;5.558;2023-03-01T00:26:42;19.92;;;17.63;;
7737;SDS011;29398;45.328;5.558;2023-03-01T00:27:43;19.50;;;17.50;;
7737;SDS011;29398;45.328;5.558;2023-03-01T00:28:45;21.85;;;19.17;;
7737;SDS011;29398;45.328;5.558;2023-03-01T00:29:47;20.58;;;17.38;;
7737;SDS011;29398;45.328;5.558;2023-03-01T00:30:49;20.48;;;17.63;;
7737;SDS011;29398;45.328;5.558;2023-03-01T00:31:50;20.23;;;18.13;;
7737;SDS011;29398;45.328;5.558;2023-03-01T00:32:52;20.33;;;18.00;;
7737;SDS011;29398;45.328;5.558;2023-03-01T00:33:53;21.17;;;18.92;;
7737;SDS011;29398;45.328;5.558;2023-03-01T00:34:57;20.38;;;18.33;;
7737;SDS011;29398;45.328;5.558;2023-03-01T00:35:58;20.98;;;18.60;;
7737;SDS011;29398;45.328;5.558;2023-03-01T00:37:00;19.00;;;17.10;;
7737;SDS011;29398;45.328;5.558;2023-03-01T00:38:05;20.88;;;18.35;;
7737;SDS011;29398;45.328;5.558;2023-03-01T00:39:10;21.15;;;18.85;;
7737;SDS011;29398;45.328;5.558;2023-03-01T00:40:15;20.67;;;18.35;;
7737;SDS011;29398;45.328;5.558;2023-03-01T00:41:16;20.60;;;17.92;;
7737;SDS011;29398;45.328;5.558;2023-03-01T00:42:20;20.10;;;18.00;;
7737;SDS011;29398;45.328;5.558;2023-03-01T00:43:22;20.00;;;17.90;;
7737;SDS011;29398;45.328;5.558;2023-03-01T00:44:23;20.98;;;18.25;;
7737;SDS011;29398;45.328;5.558;2023-03-01T00:45:25;21.20;;;19.00;;
7737;SDS011;29398;45.328;5.558;2023-03-01T00:46:27;21.40;;;19.10;;
7737;SDS011;29398;45.328;5.558;2023-03-01T00:47:30;20.25;;;17.38;;
7737;SDS011;29398;45.328;5.558;2023-03-01T00:48:31;20.45;;;18.25;;
7737;SDS011;29398;45.328;5.558;2023-03-01T00:49:33;20.92;;;18.75;;
7737;SDS011;29398;45.328;5.558;2023-03-01T00:50:34;20.52;;;18.33;;
7737;SDS011;29398;45.328;5.558;2023-03-01T00:51:37;21.05;;;18.85;;
7737;SDS011;29398;45.328;5.558;2023-03-01T00:52:39;21.13;;;18.92;;
7737;SDS011;29398;45.328;5.558;2023-03-01T00:53:41;21.33;;;18.73;;
7737;SDS011;29398;45.328;5.558;2023-03-01T00:54:43;22.33;;;19.92;;
7737;SDS011;29398;45.328;5.558;2023-03-01T00:55:46;21.23;;;18.98;;
7737;SDS011;29398;45.328;5.558;2023-03-01T00:56:48;22.33;;;19.08;;
7737;SDS011;29398;45.328;5.558;2023-03-01T00:57:50;22.13;;;19.75;;
7737;SDS011;29398;45.328;5.558;2023-03-01T00:58:51;21.65;;;19.15;;
7737;SDS011;29398;45.328;5.558;2023-03-01T00:59:53;21.10;;;18.63;;
7737;SDS011;29398;45.328;5.558;2023-03-01T01:00:54;22.58;;;20.10;;
7737;SDS011;29398;45.328;5.558;2023-03-01T01:01:57;20.83;;;18.73;;
7737;SDS011;29398;45.328;5.558;2023-03-01T01:02:59;20.25;;;18.05;;
7737;SDS011;29398;45.328;5.558;2023-03-01T01:04:02;21.17;;;18.98;;
7737;SDS011;29398;45.328;5.558;2023-03-01T01:05:05;22.17;;;19.00;;
7737;SDS011;29398;45.328;5.558;2023-03-01T01:06:12;22.25;;;18.88;;
7737;SDS011;29398;45.328;5.558;2023-03-01T01:07:14;20.15;;;18.05;;
7737;SDS011;29398;45.328;5.558;2023-03-01T01:08:16;22.48;;;19.98;;
7737;SDS011;29398;45.328;5.558;2023-03-01T01:09:17;21.13;;;18.95;;
7737;SDS011;29398;45.328;5.558;2023-03-01T01:10:19;20.90;;;18.80;;
7737;SDS011;29398;45.328;5.558;2023-03-01T01:11:22;21.80;;;19.50;;
7737;SDS011;29398;45.328;5.558;2023-03-01T01:12:26;21.58;;;19.27;;
7737;SDS011;29398;45.328;5.558;2023-03-01T01:13:27;21.55;;;19.02;;
7737;SDS011;29398;45.328;5.558;2023-03-01T01:14:30;20.95;;;18.75;;
7737;SDS011;29398;45.328;5.558;2023-03-01T01:15:32;22.13;;;19.75;;
7737;SDS011;29398;45.328;5.558;2023-03-01T01:16:35;22.05;;;19.65;;
7737;SDS011;29398;45.328;5.558;2023-03-01T01:17:36;20.13;;;17.90;;
7737;SDS011;29398;45.328;5.558;2023-03-01T01:18:38;22.35;;;19.95;;
7737;SDS011;29398;45.328;5.558;2023-03-01T01:19:42;21.98;;;19.58;;
7737;SDS011;29398;45.328;5.558;2023-03-01T01:20:44;21.65;;;19.38;;
7737;SDS011;29398;45.328;5.558;2023-03-01T01:21:45;23.02;;;20.13;;
7737;SDS011;29398;45.328;5.558;2023-03-01T01:22:48;20.10;;;18.00;;
7737;SDS011;29398;45.328;5.558;2023-03-01T01:23:49;21.55;;;19.25;;
7737;SDS011;29398;45.328;5.558;2023-03-01T01:24:52;20.38;;;18.13;;
7737;SDS011;29398;45.328;5.558;2023-03-01T01:25:53;22.25;;;19.95;;
7737;SDS011;29398;45.328;5.558;2023-03-01T01:26:56;22.08;;;19.67;;
7737;SDS011;29398;45.328;5.558;2023-03-01T01:27:57;22.90;;;20.55;;
7737;SDS011;29398;45.328;5.558;2023-03-01T01:29:00;22.13;;;19.83;;
7737;SDS011;29398;45.328;5.558;2023-03-01T01:30:03;21.02;;;18.67;;
7737;SDS011;29398;45.328;5.558;2023-03-01T01:31:07;25.13;;;20.33;;
7737;SDS011;29398;45.328;5.558;2023-03-01T01:32:08;22.42;;;19.85;;
7737;SDS011;29398;45.328;5.558;2023-03-01T01:33:10;22.50;;;19.45;;
7737;SDS011;29398;45.328;5.558;2023-03-01T01:34:13;23.48;;;19.75;;
7737;SDS011;29398;45.328;5.558;2023-03-01T01:35:16;25.73;;;19.67;;
7737;SDS011;29398;45.328;5.558;2023-03-01T01:36:18;22.20;;;19.90;;
7737;SDS011;29398;45.328;5.558;2023-03-01T01:37:20;21.65;;;19.45;;
7737;SDS011;29398;45.328;5.558;2023-03-01T01:38:21;23.67;;;19.98;;
7737;SDS011;29398;45.328;5.558;2023-03-01T01:39:24;22.25;;;19.92;;
7737;SDS011;29398;45.328;5.558;2023-03-01T01:40:25;21.23;;;18.98;;
7737;SDS011;29398;45.328;5.558;2023-03-01T01:41:28;21.38;;;19.08;;
7737;SDS011;29398;45.328;5.558;2023-03-01T01:42:31;22.92;;;20.23;;
7737;SDS011;29398;45.328;5.558;2023-03-01T01:43:34;21.33;;;19.02;;
7737;SDS011;29398;45.328;5.558;2023-03-01T01:44:36;23.15;;;20.52;;
7737;SDS011;29398;45.328;5.558;2023-03-01T01:45:39;23.13;;;20.67;;
7737;SDS011;29398;45.328;5.558;2023-03-01T01:46:42;22.55;;;20.25;;
7737;SDS011;29398;45.328;5.558;2023-03-01T01:47:47;23.23;;;20.75;;
7737;SDS011;29398;45.328;5.558;2023-03-01T01:48:49;25.00;;;20.88;;
7737;SDS011;29398;45.328;5.558;2023-03-01T01:49:56;21.70;;;19.40;;
7737;SDS011;29398;45.328;5.558;2023-03-01T01:50:59;23.25;;;20.80;;
7737;SDS011;29398;45.328;5.558;2023-03-01T01:52:04;21.17;;;19.02;;
7737;SDS011;29398;45.328;5.558;2023-03-01T01:53:10;22.67;;;20.27;;
7737;SDS011;29398;45.328;5.558;2023-03-01T01:54:18;23.20;;;19.40;;
7737;SDS011;29398;45.328;5.558;2023-03-01T01:55:22;23.15;;;20.65;;
7737;SDS011;29398;45.328;5.558;2023-03-01T01:56:28;22.10;;;19.80;;
7737;SDS011;29398;45.328;5.558;2023-03-01T01:57:33;23.05;;;20.30;;
7737;SDS011;29398;45.328;5.558;2023-03-01T01:58:38;23.98;;;21.35;;
7737;SDS011;29398;45.328;5.558;2023-03-01T01:59:43;22.17;;;19.75;;
7737;SDS011;29398;45.328;5.558;2023-03-01T02:00:49;23.42;;;20.92;;
7737;SDS011;29398;45.328;5.558;2023-03-01T02:01:50;23.10;;;20.70;;
7737;SDS011;29398;45.328;5.558;2023-03-01T02:02:55;23.90;;;21.33;;
7737;SDS011;29398;45.328;5.558;2023-03-01T02:04:00;23.08;;;20.02;;
7737;SDS011;29398;45.328;5.558;2023-03-01T02:05:03;23.08;;;20.67;;
7737;SDS011;29398;45.328;5.558;2023-03-01T02:06:12;23.25;;;20.70;;
7737;SDS011;29398;45.328;5.558;2023-03-01T02:07:19;22.75;;;20.25;;
7737;SDS011;29398;45.328;5.558;2023-03-01T02:08:23;23.20;;;20.73;;
7737;SDS011;29398;45.328;5.558;2023-03-01T02:09:29;22.75;;;20.35;;
7737;SDS011;29398;45.328;5.558;2023-03-01T02:10:33;24.08;;;21.50;;
7737;SDS011;29398;45.328;5.558;2023-03-01T02:11:37;22.75;;;20.35;;
7737;SDS011;29398;45.328;5.558;2023-03-01T02:12:40;23.65;;;21.13;;
7737;SDS011;29398;45.328;5.558;2023-03-01T02:13:42;24.08;;;21.13;;
7737;SDS011;29398;45.328;5.558;2023-03-01T02:14:43;24.73;;;22.23;;
7737;SDS011;29398;45.328;5.558;2023-03-01T02:15:46;23.15;;;20.67;;
7737;SDS011;29398;45.328;5.558;2023-03-01T02:16:47;23.73;;;21.08;;
7737;SDS011;29398;45.328;5.558;2023-03-01T02:17:50;25.50;;;21.25;;
7737;SDS011;29398;45.328;5.558;2023-03-01T02:18:52;24.77;;;21.92;;
7737;SDS011;29398;45.328;5.558;2023-03-01T02:19:59;25.15;;;21.83;;
7737;SDS011;29398;45.328;5.558;2023-03-01T02:21:12;24.40;;;21.80;;
7737;SDS011;29398;45.328;5.558;2023-03-01T02:22:23;24.90;;;22.27;;
7737;SDS011;29398;45.328;5.558;2023-03-01T02:23:27;24.90;;;22.17;;
7737;SDS011;29398;45.328;5.558;2023-03-01T02:24:33;23.17;;;20.65;;
7737;SDS011;29398;45.328;5.558;2023-03-01T02:25:43;24.33;;;21.73;;
7737;SDS011;29398;45.328;5.558;2023-03-01T02:26:51;24.60;;;22.02;;
7737;SDS011;29398;45.328;5.558;2023-03-01T02:27:58;24.83;;;22.27;;
7737;SDS011;29398;45.328;5.558;2023-03-01T02:29:07;24.38;;;21.90;;
7737;SDS011;29398;45.328;5.558;2023-03-01T02:30:10;24.88;;;22.08;;
7737;SDS011;29398;45.328;5.558;2023-03-01T02:31:14;25.33;;;22.25;;
7737;SDS011;29398;45.328;5.558;2023-03-01T02:32:36;24.85;;;22.25;;
7737;SDS011;29398;45.328;5.558;2023-03-01T02:33:38;25.25;;;22.67;;
7737;SDS011;29398;45.328;5.558;2023-03-01T02:34:40;25.33;;;22.73;;
7737;SDS011;29398;45.328;5.558;2023-03-01T02:35:43;24.88;;;22.38;;
7737;SDS011;29398;45.328;5.558;2023-03-01T02:36:45;24.88;;;22.17;;
7737;SDS011;29398;45.328;5.558;2023-03-01T02:37:49;26.10;;;23.33;;
7737;SDS011;29398;45.328;5.558;2023-03-01T02:38:51;24.80;;;21.40;;
7737;SDS011;29398;45.328;5.558;2023-03-01T02:39:58;26.80;;;23.60;;
7737;SDS011;29398;45.328;5.558;2023-03-01T02:41:04;25.27;;;22.65;;
7737;SDS011;29398;45.328;5.558;2023-03-01T02:42:07;23.75;;;21.35;;
7737;SDS011;29398;45.328;5.558;2023-03-01T02:43:13;24.88;;;22.27;;
7737;SDS011;29398;45.328;5.558;2023-03-01T02:44:17;24.92;;;22.40;;
7737;SDS011;29398;45.328;5.558;2023-03-01T02:45:20;25.63;;;22.35;;
7737;SDS011;29398;45.328;5.558;2023-03-01T02:46:22;23.98;;;21.48;;
7737;SDS011;29398;45.328;5.558;2023-03-01T02:47:25;24.65;;;21.58;;
7737;SDS011;29398;45.328;5.558;2023-03-01T02:48:26;24.45;;;21.85;;
7737;SDS011;29398;45.328;5.558;2023-03-01T02:49:29;27.48;;;22.45;;
7737;SDS011;29398;45.328;5.558;2023-03-01T02:50:46;25.67;;;22.95;;
7737;SDS011;29398;45.328;5.558;2023-03-01T02:52:04;24.95;;;22.35;;
7737;SDS011;29398;45.328;5.558;2023-03-01T02:53:17;26.08;;;23.02;;
7737;SDS011;29398;45.328;5.558;2023-03-01T02:54:29;24.30;;;21.77;;
7737;SDS011;29398;45.328;5.558;2023-03-01T02:55:37;25.15;;;22.73;;
7737;SDS011;29398;45.328;5.558;2023-03-01T02:56:39;25.17;;;22.48;;
7737;SDS011;29398;45.328;5.558;2023-03-01T02:57:45;25.05;;;22.35;;
7737;SDS011;29398;45.328;5.558;2023-03-01T02:58:51;26.90;;;24.05;;
7737;SDS011;29398;45.328;5.558;2023-03-01T02:59:55;25.27;;;22.65;;
7737;SDS011;29398;45.328;5.558;2023-03-01T03:01:00;25.83;;;23.13;;
7737;SDS011;29398;45.328;5.558;2023-03-01T03:02:02;25.95;;;22.33;;
7737;SDS011;29398;45.328;5.558;2023-03-01T03:03:03;26.35;;;23.17;;
7737;SDS011;29398;45.328;5.558;2023-03-01T03:04:06;25.33;;;22.65;;
7737;SDS011;29398;45.328;5.558;2023-03-01T03:05:11;26.15;;;23.27;;
7737;SDS011;29398;45.328;5.558;2023-03-01T03:06:15;24.88;;;22.25;;
7737;SDS011;29398;45.328;5.558;2023-03-01T03:07:16;26.38;;;23.15;;
7737;SDS011;29398;45.328;5.558;2023-03-01T03:08:19;24.67;;;22.00;;
7737;SDS011;29398;45.328;5.558;2023-03-01T03:09:25;25.75;;;22.60;;
7737;SDS011;29398;45.328;5.558;2023-03-01T03:10:27;24.20;;;21.67;;
7737;SDS011;29398;45.328;5.558;2023-03-01T03:11:31;24.23;;;21.67;;
7737;SDS011;29398;45.328;5.558;2023-03-01T03:12:33;24.90;;;22.23;;
7737;SDS011;29398;45.328;5.558;2023-03-01T03:13:34;25.92;;;22.08;;
7737;SDS011;29398;45.328;5.558;2023-03-01T03:14:37;25.35;;;22.65;;
7737;SDS011;29398;45.328;5.558;2023-03-01T03:15:40;25.58;;;22.85;;
7737;SDS011;29398;45.328;5.558;2023-03-01T03:16:44;26.20;;;23.40;;
7737;SDS011;29398;45.328;5.558;2023-03-01T03:17:48;26.45;;;23.73;;
7737;SDS011;29398;45.328;5.558;2023-03-01T03:18:51;26.02;;;22.60;;
7737;SDS011;29398;45.328;5.558;2023-03-01T03:19:52;25.23;;;22.38;;
7737;SDS011;29398;45.328;5.558;2023-03-01T03:20:55;25.88;;;23.15;;
7737;SDS011;29398;45.328;5.558;2023-03-01T03:21:56;24.40;;;21.80;;
7737;SDS011;29398;45.328;5.558;2023-03-01T03:22:59;24.27;;;21.73;;
7737;SDS011;29398;45.328;5.558;2023-03-01T03:24:01;24.27;;;21.67;;
7737;SDS011;29398;45.328;5.558;2023-03-01T03:25:03;26.10;;;23.30;;
7737;SDS011;29398;45.328;5.558;2023-03-01T03:26:05;27.23;;;24.42;;
7737;SDS011;29398;45.328;5.558;2023-03-01T03:27:08;26.27;;;23.48;;
7737;SDS011;29398;45.328;5.558;2023-03-01T03:28:09;26.52;;;23.67;;
7737;SDS011;29398;45.328;5.558;2023-03-01T03:29:11;26.25;;;22.35;;
7737;SDS011;29398;45.328;5.558;2023-03-01T03:30:16;25.90;;;23.23;;
7737;SDS011;29398;45.328;5.558;2023-03-01T03:31:21;25.90;;;23.23;;
7737;SDS011;29398;45.328;5.558;2023-03-01T03:32:22;24.95;;;22.25;;
7737;SDS011;29398;45.328;5.558;2023-03-01T03:33:24;28.92;;;23.45;;
7737;SDS011;29398;45.328;5.558;2023-03-01T03:34:25;25.33;;;22.75;;
7737;SDS011;29398;45.328;5.558;2023-03-01T03:35:28;25.42;;;22.80;;
7737;SDS011;29398;45.328;5.558;2023-03-01T03:36:30;24.63;;;22.05;;
7737;SDS011;29398;45.328;5.558;2023-03-01T03:37:32;24.80;;;21.85;;
7737;SDS011;29398;45.328;5.558;2023-03-01T03:38:52;25.95;;;22.70;;
7737;SDS011;29398;45.328;5.558;2023-03-01T03:39:54;25.80;;;23.05;;
7737;SDS011;29398;45.328;5.558;2023-03-01T03:40:59;25.85;;;23.15;;
7737;SDS011;29398;45.328;5.558;2023-03-01T03:42:03;26.67;;;23.85;;
7737;SDS011;29398;45.328;5.558;2023-03-01T03:43:05;25.48;;;22.77;;
7737;SDS011;29398;45.328;5.558;2023-03-01T03:44:09;26.17;;;23.38;;
7737;SDS011;29398;45.328;5.558;2023-03-01T03:45:10;26.40;;;23.63;;
7737;SDS011;29398;45.328;5.558;2023-03-01T03:46:13;26.92;;;24.13;;
7737;SDS011;29398;45.328;5.558;2023-03-01T03:47:16;25.15;;;22.40;;
7737;SDS011;29398;45.328;5.558;2023-03-01T03:48:18;26.10;;;23.23;;
7737;SDS011;29398;45.328;5.558;2023-03-01T03:49:20;27.25;;;24.40;;
7737;SDS011;29398;45.328;5.558;2023-03-01T03:50:22;25.17;;;22.55;;
7737;SDS011;29398;45.328;5.558;2023-03-01T03:51:23;25.88;;;23.10;;
7737;SDS011;29398;45.328;5.558;2023-03-01T03:52:25;25.67;;;22.88;;
7737;SDS011;29398;45.328;5.558;2023-03-01T03:53:27;26.20;;;23.40;;
7737;SDS011;29398;45.328;5.558;2023-03-01T03:54:30;26.58;;;23.85;;
7737;SDS011;29398;45.328;5.558;2023-03-01T03:55:31;26.45;;;23.65;;
7737;SDS011;29398;45.328;5.558;2023-03-01T03:56:34;25.83;;;23.10;;
7737;SDS011;29398;45.328;5.558;2023-03-01T03:57:35;25.48;;;22.85;;
7737;SDS011;29398;45.328;5.558;2023-03-01T03:58:37;27.85;;;23.42;;
7737;SDS011;29398;45.328;5.558;2023-03-01T03:59:38;26.98;;;24.15;;
7737;SDS011;29398;45.328;5.558;2023-03-01T04:00:40;26.88;;;23.98;;
7737;SDS011;29398;45.328;5.558;2023-03-01T04:01:43;25.23;;;22.73;;
7737;SDS011;29398;45.328;5.558;2023-03-01T04:02:47;25.85;;;23.08;;
7737;SDS011;29398;45.328;5.558;2023-03-01T04:03:48;26.67;;;23.85;;
7737;SDS011;29398;45.328;5.558;2023-03-01T04:04:54;25.92;;;23.33;;
7737;SDS011;29398;45.328;5.558;2023-03-01T04:05:56;26.50;;;23.70;;
7737;SDS011;29398;45.328;5.558;2023-03-01T04:06:59;25.95;;;23.20;;
7737;SDS011;29398;45.328;5.558;2023-03-01T04:08:00;25.50;;;22.80;;
7737;SDS011;29398;45.328;5.558;2023-03-01T04:09:07;25.50;;;22.80;;
7737;SDS011;29398;45.328;5.558;2023-03-01T04:10:10;25.88;;;23.10;;
7737;SDS011;29398;45.328;5.558;2023-03-01T04:11:13;25.00;;;22.13;;
7737;SDS011;29398;45.328;5.558;2023-03-01T04:12:27;25.20;;;22.55;;
7737;SDS011;29398;45.328;5.558;2023-03-01T04:13:28;25.02;;;22.33;;
7737;SDS011;29398;45.328;5.558;2023-03-01T04:14:30;24.58;;;22.00;;
7737;SDS011;29398;45.328;5.558;2023-03-01T04:15:32;25.48;;;22.83;;
7737;SDS011;29398;45.328;5.558;2023-03-01T04:16:35;26.25;;;23.42;;
7737;SDS011;29398;45.328;5.558;2023-03-01T04:17:36;26.55;;;23.25;;
7737;SDS011;29398;45.328;5.558;2023-03-01T04:18:41;24.85;;;22.25;;
7737;SDS011;29398;45.328;5.558;2023-03-01T04:19:43;27.33;;;24.50;;
7737;SDS011;29398;45.328;5.558;2023-03-01T04:20:44;24.52;;;22.02;;
7737;SDS011;29398;45.328;5.558;2023-03-01T04:21:47;24.65;;;22.05;;
7737;SDS011;29398;45.328;5.558;2023-03-01T04:22:49;26.15;;;23.35;;
7737;SDS011;29398;45.328;5.558;2023-03-01T04:23:50;27.48;;;24.02;;
7737;SDS011;29398;45.328;5.558;2023-03-01T04:24:53;27.23;;;24.33;;
7737;SDS011;29398;45.328;5.558;2023-03-01T04:25:55;27.33;;;24.15;;
7737;SDS011;29398;45.328;5.558;2023-03-01T04:26:59;25.35;;;22.75;;
7737;SDS011;29398;45.328;5.558;2023-03-01T04:28:00;27.73;;;24.10;;
7737;SDS011;29398;45.328;5.558;2023-03-01T04:29:02;26.20;;;23.50;;
7737;SDS011;29398;45.328;5.558;2023-03-01T04:30:04;28.05;;;25.05;;
7737;SDS011;29398;45.328;5.558;2023-03-01T04:31:08;27.17;;;24.38;;
7737;SDS011;29398;45.328;5.558;2023-03-01T04:32:13;26.25;;;23.55;;
7737;SDS011;29398;45.328;5.558;2023-03-01T04:33:16;26.70;;;23.90;;
7737;SDS011;29398;45.328;5.558;2023-03-01T04:34:19;27.45;;;24.65;;
7737;SDS011;29398;45.328;5.558;2023-03-01T04:35:21;25.58;;;22.90;;
7737;SDS011;29398;45.328;5.558;2023-03-01T04:36:23;26.92;;;24.05;;
7737;SDS011;29398;45.328;5.558;2023-03-01T04:37:26;27.45;;;24.65;;
7737;SDS011;29398;45.328;5.558;2023-03-01T04:38:28;28.30;;;25.40;;
7737;SDS011;29398;45.328;5.558;2023-03-01T04:39:30;26.77;;;24.02;;
7737;SDS011;29398;45.328;5.558;2023-03-01T04:40:31;26.48;;;23.70;;
7737;SDS011;29398;45.328;5.558;2023-03-01T04:41:33;27.83;;;24.92;;
7737;SDS011;29398;45.328;5.558;2023-03-01T04:42:34;27.90;;;24.90;;
7737;SDS011;29398;45.328;5.558;2023-03-01T04:43:37;27.08;;;24.27;;
7737;SDS011;29398;45.328;5.558;2023-03-01T04:44:38;27.92;;;25.02;;
7737;SDS011;29398;45.328;5.558;2023-03-01T04:45:40;27.85;;;25.05;;
7737;SDS011;29398;45.328;5.558;2023-03-01T04:46:41;25.90;;;23.20;;
7737;SDS011;29398;45.328;5.558;2023-03-01T04:47:43;28.42;;;25.10;;
7737;SDS011;29398;45.328;5.558;2023-03-01T04:48:46;27.55;;;24.80;;
7737;SDS011;29398;45.328;5.558;2023-03-01T04:49:50;28.38;;;25.42;;
7737;SDS011;29398;45.328;5.558;2023-03-01T04:50:51;27.75;;;24.92;;
7737;SDS011;29398;45.328;5.558;2023-03-01T04:51:53;28.05;;;25.10;;
7737;SDS011;29398;45.328;5.558;2023-03-01T04:52:54;28.17;;;25.33;;
7737;SDS011;29398;45.328;5.558;2023-03-01T04:53:58;29.00;;;26.02;;
7737;SDS011;29398;45.328;5.558;2023-03-01T04:55:00;28.55;;;25.67;;
7737;SDS011;29398;45.328;5.558;2023-03-01T04:56:04;27.92;;;25.13;;
7737;SDS011;29398;45.328;5.558;2023-03-01T04:57:06;27.63;;;24.85;;
7737;SDS011;29398;45.328;5.558;2023-03-01T04:58:07;27.42;;;24.73;;
7737;SDS011;29398;45.328;5.558;2023-03-01T04:59:09;28.45;;;25.65;;
7737;SDS011;29398;45.328;5.558;2023-03-01T05:00:13;27.30;;;24.58;;
7737;SDS011;29398;45.328;5.558;2023-03-01T05:01:22;27.90;;;25.00;;
7737;SDS011;29398;45.328;5.558;2023-03-01T05:02:24;27.90;;;24.90;;
7737;SDS011;29398;45.328;5.558;2023-03-01T05:03:26;27.92;;;25.23;;
7737;SDS011;29398;45.328;5.558;2023-03-01T05:04:28;27.52;;;24.83;;
7737;SDS011;29398;45.328;5.558;2023-03-01T05:05:33;27.75;;;25.13;;
7737;SDS011;29398;45.328;5.558;2023-03-01T05:06:36;28.35;;;25.55;;
7737;SDS011;29398;45.328;5.558;2023-03-01T05:07:38;26.83;;;24.23;;
7737;SDS011;29398;45.328;5.558;2023-03-01T05:08:39;28.35;;;25.45;;
7737;SDS011;29398;45.328;5.558;2023-03-01T05:09:42;27.15;;;24.45;;
7737;SDS011;29398;45.328;5.558;2023-03-01T05:10:44;27.77;;;24.98;;
7737;SDS011;29398;45.328;5.558;2023-03-01T05:11:47;27.30;;;24.50;;
7737;SDS011;29398;45.328;5.558;2023-03-01T05:12:48;27.63;;;24.88;;
7737;SDS011;29398;45.328;5.558;2023-03-01T05:13:52;29.10;;;26.00;;
7737;SDS011;29398;45.328;5.558;2023-03-01T05:14:55;27.00;;;24.42;;
7737;SDS011;29398;45.328;5.558;2023-03-01T05:15:56;28.80;;;26.02;;
7737;SDS011;29398;45.328;5.558;2023-03-01T05:17:00;27.15;;;24.55;;
7737;SDS011;29398;45.328;5.558;2023-03-01T05:18:04;27.48;;;24.73;;
7737;SDS011;29398;45.328;5.558;2023-03-01T05:19:11;27.15;;;24.48;;
7737;SDS011;29398;45.328;5.558;2023-03-01T05:20:15;28.15;;;25.45;;
7737;SDS011;29398;45.328;5.558;2023-03-01T05:21:19;27.25;;;24.52;;
7737;SDS011;29398;45.328;5.558;2023-03-01T05:22:20;28.00;;;25.20;;
7737;SDS011;29398;45.328;5.558;2023-03-01T05:23:23;28.42;;;25.63;;
7737;SDS011;29398;45.328;5.558;2023-03-01T05:24:24;28.63;;;25.83;;
7737;SDS011;29398;45.328;5.558;2023-03-01T05:25:27;28.05;;;25.15;;
7737;SDS011;29398;45.328;5.558;2023-03-01T05:26:33;27.60;;;24.75;;
7737;SDS011;29398;45.328;5.558;2023-03-01T05:27:40;27.23;;;24.52;;
7737;SDS011;29398;45.328;5.558;2023-03-01T05:28:42;27.80;;;24.98;;
7737;SDS011;29398;45.328;5.558;2023-03-01T05:29:44;29.38;;;26.35;;
7737;SDS011;29398;45.328;5.558;2023-03-01T05:30:45;26.58;;;23.90;;
7737;SDS011;29398;45.328;5.558;2023-03-01T05:31:48;27.70;;;24.80;;
7737;SDS011;29398;45.328;5.558;2023-03-01T05:32:49;28.52;;;25.52;;
7737;SDS011;29398;45.328;5.558;2023-03-01T05:33:55;28.23;;;25.13;;
7737;SDS011;29398;45.328;5.558;2023-03-01T05:34:56;28.33;;;25.38;;
7737;SDS011;29398;45.328;5.558;2023-03-01T05:35:59;28.30;;;25.45;;
7737;SDS011;29398;45.328;5.558;2023-03-01T05:37:02;27.70;;;24.88;;
7737;SDS011;29398;45.328;5.558;2023-03-01T05:38:05;28.02;;;25.23;;
7737;SDS011;29398;45.328;5.558;2023-03-01T05:39:06;27.92;;;25.13;;
7737;SDS011;29398;45.328;5.558;2023-03-01T05:40:09;28.30;;;25.50;;
7737;SDS011;29398;45.328;5.558;2023-03-01T05:41:16;27.15;;;24.48;;
7737;SDS011;29398;45.328;5.558;2023-03-01T05:42:17;28.27;;;25.48;;
7737;SDS011;29398;45.328;5.558;2023-03-01T05:43:19;27.45;;;24.55;;
7737;SDS011;29398;45.328;5.558;2023-03-01T05:44:22;28.35;;;25.60;;
7737;SDS011;29398;45.328;5.558;2023-03-01T05:45:23;28.70;;;25.95;;
7737;SDS011;29398;45.328;5.558;2023-03-01T05:46:27;28.88;;;26.05;;
7737;SDS011;29398;45.328;5.558;2023-03-01T05:47:29;28.60;;;25.60;;
7737;SDS011;29398;45.328;5.558;2023-03-01T05:48:32;29.10;;;26.30;;
7737;SDS011;29398;45.328;5.558;2023-03-01T05:49:33;29.48;;;26.48;;
7737;SDS011;29398;45.328;5.558;2023-03-01T05:50:35;28.17;;;25.38;;
7737;SDS011;29398;45.328;5.558;2023-03-01T05:51:39;27.48;;;24.88;;
7737;SDS011;29398;45.328;5.558;2023-03-01T05:52:43;27.75;;;25.05;;
7737;SDS011;29398;45.328;5.558;2023-03-01T05:53:45;28.40;;;25.60;;
7737;SDS011;29398;45.328;5.558;2023-03-01T05:54:47;27.92;;;25.13;;
7737;SDS011;29398;45.328;5.558;2023-03-01T05:55:48;28.42;;;25.58;;
7737;SDS011;29398;45.328;5.558;2023-03-01T05:56:51;28.45;;;25.73;;
7737;SDS011;29398;45.328;5.558;2023-03-01T05:57:52;28.30;;;25.50;;
7737;SDS011;29398;45.328;5.558;2023-03-01T05:58:55;28.33;;;25.55;;
7737;SDS011;29398;45.328;5.558;2023-03-01T05:59:56;26.75;;;24.33;;
7737;SDS011;29398;45.328;5.558;2023-03-01T06:00:58;28.58;;;25.77;;
7737;SDS011;29398;45.328;5.558;2023-03-01T06:02:00;27.55;;;24.85;;
7737;SDS011;29398;45.328;5.558;2023-03-01T06:03:01;27.63;;;25.02;;
7737;SDS011;29398;45.328;5.558;2023-03-01T06:04:04;28.95;;;26.15;;
7737;SDS011;29398;45.328;5.558;2023-03-01T06:05:05;28.77;;;26.00;;
7737;SDS011;29398;45.328;5.558;2023-03-01T06:06:08;28.00;;;25.30;;
7737;SDS011;29398;45.328;5.558;2023-03-01T06:07:09;28.33;;;25.65;;
7737;SDS011;29398;45.328;5.558;2023-03-01T06:08:13;27.58;;;24.90;;
7737;SDS011;29398;45.328;5.558;2023-03-01T06:09:14;28.00;;;25.30;;
7737;SDS011;29398;45.328;5.558;2023-03-01T06:10:17;28.08;;;25.38;;
7737;SDS011;29398;45.328;5.558;2023-03-01T06:11:18;28.42;;;25.52;;
7737;SDS011;29398;45.328;5.558;2023-03-01T06:12:21;29.60;;;26.45;;
7737;SDS011;29398;45.328;5.558;2023-03-01T06:13:22;27.83;;;24.83;;
7737;SDS011;29398;45.328;5.558;2023-03-01T06:14:24;28.45;;;25.65;;